sensor_id;sensor_type;location;lat;lon;timestamp;temperature;humidity
25914;DHT22;13718;50.922;5.346;2022-08-01T00:01:00;22.40;99.90
25914;DHT22;13718;50.922;5.346;2022-08-01T00:03:26;22.30;99.90
25914;DHT22;13718;50.922;5.346;2022-08-01T00:05:51;22.30;99.90
25914;DHT22;13718;50.922;5.346;2022-08-01T00:08:17;22.30;99.90
25914;DHT22;13718;50.922;5.346;2022-08-01T00:10:42;22.30;99.90
25914;DHT22;13718;50.922;5.346;2022-08-01T00:13:08;22.30;99.90
25914;DHT22;13718;50.922;5.346;2022-08-01T00:15:34;22.20;99.90
25914;DHT22;13718;50.922;5.346;2022-08-01T00:18:00;22.20;99.90
25914;DHT22;13718;50.922;5.346;2022-08-01T00:20:26;22.10;99.90
25914;DHT22;13718;50.922;5.346;2022-08-01T00:22:51;22.00;99.90
25914;DHT22;13718;50.922;5.346;2022-08-01T00:25:17;22.00;99.90
25914;DHT22;13718;50.922;5.346;2022-08-01T00:27:43;22.10;99.90
25914;DHT22;13718;50.922;5.346;2022-08-01T00:30:08;22.10;99.90
25914;DHT22;13718;50.922;5.346;2022-08-01T00:32:34;22.10;99.90
25914;DHT22;13718;50.922;5.346;2022-08-01T00:35:00;22.10;99.90
25914;DHT22;13718;50.922;5.346;2022-08-01T00:37:25;22.00;99.90
25914;DHT22;13718;50.922;5.346;2022-08-01T00:39:51;22.00;99.90
25914;DHT22;13718;50.922;5.346;2022-08-01T00:42:17;22.10;99.90
25914;DHT22;13718;50.922;5.346;2022-08-01T00:44:42;22.10;99.90
25914;DHT22;13718;50.922;5.346;2022-08-01T00:47:08;22.20;99.90
25914;DHT22;13718;50.922;5.346;2022-08-01T00:49:34;22.20;99.90
25914;DHT22;13718;50.922;5.346;2022-08-01T00:52:00;22.20;99.90
25914;DHT22;13718;50.922;5.346;2022-08-01T00:54:27;22.20;99.90
25914;DHT22;13718;50.922;5.346;2022-08-01T00:56:54;22.10;99.90
25914;DHT22;13718;50.922;5.346;2022-08-01T00:59:21;22.10;99.90
25914;DHT22;13718;50.922;5.346;2022-08-01T01:01:47;22.10;99.90
25914;DHT22;13718;50.922;5.346;2022-08-01T01:04:13;22.10;99.90
25914;DHT22;13718;50.922;5.346;2022-08-01T01:06:48;22.20;99.90
25914;DHT22;13718;50.922;5.346;2022-08-01T01:20:13;22.10;99.90
25914;DHT22;13718;50.922;5.346;2022-08-01T01:25:41;22.10;99.90
25914;DHT22;13718;50.922;5.346;2022-08-01T01:30:58;22.10;99.90
25914;DHT22;13718;50.922;5.346;2022-08-01T01:33:27;22.20;99.90
25914;DHT22;13718;50.922;5.346;2022-08-01T01:35:58;22.10;99.90
25914;DHT22;13718;50.922;5.346;2022-08-01T01:38:27;22.10;99.90
25914;DHT22;13718;50.922;5.346;2022-08-01T01:40:54;22.10;99.90
25914;DHT22;13718;50.922;5.346;2022-08-01T01:43:21;22.10;99.90
25914;DHT22;13718;50.922;5.346;2022-08-01T01:45:49;22.10;99.90
25914;DHT22;13718;50.922;5.346;2022-08-01T01:48:18;22.10;99.90
25914;DHT22;13718;50.922;5.346;2022-08-01T01:50:48;22.20;99.90
25914;DHT22;13718;50.922;5.346;2022-08-01T01:53:17;22.10;99.90
25914;DHT22;13718;50.922;5.346;2022-08-01T01:55:46;22.10;99.90
25914;DHT22;13718;50.922;5.346;2022-08-01T01:58:13;22.10;99.90
25914;DHT22;13718;50.922;5.346;2022-08-01T02:00:42;22.10;99.90
25914;DHT22;13718;50.922;5.346;2022-08-01T02:03:10;22.10;99.90
25914;DHT22;13718;50.922;5.346;2022-08-01T02:05:37;22.00;99.90
25914;DHT22;13718;50.922;5.346;2022-08-01T02:08:04;22.10;99.90
25914;DHT22;13718;50.922;5.346;2022-08-01T02:10:31;22.00;99.90
25914;DHT22;13718;50.922;5.346;2022-08-01T02:12:59;22.00;99.90
25914;DHT22;13718;50.922;5.346;2022-08-01T02:15:27;22.00;99.90
25914;DHT22;13718;50.922;5.346;2022-08-01T02:17:56;21.90;99.90
25914;DHT22;13718;50.922;5.346;2022-08-01T02:20:22;21.90;99.90
25914;DHT22;13718;50.922;5.346;2022-08-01T02:22:53;21.90;99.90
25914;DHT22;13718;50.922;5.346;2022-08-01T02:25:23;21.90;99.90
25914;DHT22;13718;50.922;5.346;2022-08-01T02:28:04;21.90;99.90
25914;DHT22;13718;50.922;5.346;2022-08-01T02:30:33;21.90;99.90
25914;DHT22;13718;50.922;5.346;2022-08-01T02:33:30;21.80;99.90
25914;DHT22;13718;50.922;5.346;2022-08-01T02:35:56;21.80;99.90
25914;DHT22;13718;50.922;5.346;2022-08-01T02:38:25;21.80;99.90
25914;DHT22;13718;50.922;5.346;2022-08-01T02:40:53;21.90;99.90
25914;DHT22;13718;50.922;5.346;2022-08-01T02:43:21;22.00;99.90
25914;DHT22;13718;50.922;5.346;2022-08-01T02:45:53;21.90;99.90
25914;DHT22;13718;50.922;5.346;2022-08-01T02:48:20;22.00;99.90
25914;DHT22;13718;50.922;5.346;2022-08-01T02:50:48;22.00;99.90
25914;DHT22;13718;50.922;5.346;2022-08-01T02:53:18;21.90;99.90
25914;DHT22;13718;50.922;5.346;2022-08-01T02:55:45;22.00;99.90
25914;DHT22;13718;50.922;5.346;2022-08-01T02:58:15;22.00;99.90
25914;DHT22;13718;50.922;5.346;2022-08-01T03:00:43;21.90;99.90
25914;DHT22;13718;50.922;5.346;2022-08-01T03:03:09;21.90;99.90
25914;DHT22;13718;50.922;5.346;2022-08-01T03:05:36;21.90;99.90
25914;DHT22;13718;50.922;5.346;2022-08-01T03:08:03;21.90;99.90
25914;DHT22;13718;50.922;5.346;2022-08-01T03:10:31;21.90;99.90
25914;DHT22;13718;50.922;5.346;2022-08-01T03:12:59;22.00;99.90
25914;DHT22;13718;50.922;5.346;2022-08-01T03:15:27;21.90;99.90
25914;DHT22;13718;50.922;5.346;2022-08-01T03:17:55;21.90;99.90
25914;DHT22;13718;50.922;5.346;2022-08-01T03:20:23;21.90;99.90
25914;DHT22;13718;50.922;5.346;2022-08-01T03:22:51;21.80;99.90
25914;DHT22;13718;50.922;5.346;2022-08-01T03:25:18;21.80;99.90
25914;DHT22;13718;50.922;5.346;2022-08-01T03:27:50;21.80;99.90
25914;DHT22;13718;50.922;5.346;2022-08-01T03:30:17;21.80;99.90
25914;DHT22;13718;50.922;5.346;2022-08-01T03:32:42;21.80;99.90
25914;DHT22;13718;50.922;5.346;2022-08-01T03:35:08;21.80;99.90
25914;DHT22;13718;50.922;5.346;2022-08-01T03:37:42;21.80;99.90
25914;DHT22;13718;50.922;5.346;2022-08-01T03:40:17;21.90;99.90
25914;DHT22;13718;50.922;5.346;2022-08-01T03:42:48;21.80;99.90
25914;DHT22;13718;50.922;5.346;2022-08-01T03:45:21;21.80;99.90
25914;DHT22;13718;50.922;5.346;2022-08-01T03:47:49;21.80;99.90
25914;DHT22;13718;50.922;5.346;2022-08-01T03:50:21;21.80;99.90
25914;DHT22;13718;50.922;5.346;2022-08-01T03:52:49;21.80;99.90
25914;DHT22;13718;50.922;5.346;2022-08-01T03:55:15;21.70;99.90
25914;DHT22;13718;50.922;5.346;2022-08-01T03:57:42;21.70;99.90
25914;DHT22;13718;50.922;5.346;2022-08-01T04:00:09;21.70;99.90
25914;DHT22;13718;50.922;5.346;2022-08-01T04:02:36;21.70;99.90
25914;DHT22;13718;50.922;5.346;2022-08-01T04:05:03;21.80;99.90
25914;DHT22;13718;50.922;5.346;2022-08-01T04:07:31;21.70;99.90
25914;DHT22;13718;50.922;5.346;2022-08-01T04:09:57;21.80;99.90
25914;DHT22;13718;50.922;5.346;2022-08-01T04:12:23;21.80;99.90
25914;DHT22;13718;50.922;5.346;2022-08-01T04:14:50;21.70;99.90
25914;DHT22;13718;50.922;5.346;2022-08-01T04:17:16;21.70;99.90
25914;DHT22;13718;50.922;5.346;2022-08-01T04:19:42;21.70;99.90
25914;DHT22;13718;50.922;5.346;2022-08-01T04:22:10;21.70;99.90
25914;DHT22;13718;50.922;5.346;2022-08-01T04:24:37;21.80;99.90
25914;DHT22;13718;50.922;5.346;2022-08-01T04:27:13;21.70;99.90
25914;DHT22;13718;50.922;5.346;2022-08-01T04:29:41;21.70;99.90
25914;DHT22;13718;50.922;5.346;2022-08-01T04:32:12;21.70;99.90
25914;DHT22;13718;50.922;5.346;2022-08-01T04:34:41;21.70;99.90
25914;DHT22;13718;50.922;5.346;2022-08-01T04:37:09;21.70;99.90
25914;DHT22;13718;50.922;5.346;2022-08-01T04:39:37;21.80;99.90
25914;DHT22;13718;50.922;5.346;2022-08-01T04:42:04;21.80;99.90
25914;DHT22;13718;50.922;5.346;2022-08-01T04:44:31;21.70;99.90
25914;DHT22;13718;50.922;5.346;2022-08-01T04:46:59;21.70;99.90
25914;DHT22;13718;50.922;5.346;2022-08-01T04:49:25;21.70;99.90
25914;DHT22;13718;50.922;5.346;2022-08-01T04:51:54;21.80;99.90
25914;DHT22;13718;50.922;5.346;2022-08-01T04:54:30;21.80;99.90
25914;DHT22;13718;50.922;5.346;2022-08-01T04:56:59;21.80;99.90
25914;DHT22;13718;50.922;5.346;2022-08-01T04:59:36;21.70;99.90
25914;DHT22;13718;50.922;5.346;2022-08-01T05:02:14;21.70;99.90
25914;DHT22;13718;50.922;5.346;2022-08-01T05:04:41;21.70;99.90
25914;DHT22;13718;50.922;5.346;2022-08-01T05:07:08;21.70;99.90
25914;DHT22;13718;50.922;5.346;2022-08-01T05:09:34;21.70;99.90
25914;DHT22;13718;50.922;5.346;2022-08-01T05:12:03;21.80;99.90
25914;DHT22;13718;50.922;5.346;2022-08-01T05:14:29;21.80;99.90
25914;DHT22;13718;50.922;5.346;2022-08-01T05:16:59;21.80;99.90
25914;DHT22;13718;50.922;5.346;2022-08-01T05:19:28;21.70;99.90
25914;DHT22;13718;50.922;5.346;2022-08-01T05:21:54;21.70;99.90
25914;DHT22;13718;50.922;5.346;2022-08-01T05:24:20;21.70;99.90
25914;DHT22;13718;50.922;5.346;2022-08-01T05:26:45;21.70;99.90
25914;DHT22;13718;50.922;5.346;2022-08-01T05:29:11;21.60;99.90
25914;DHT22;13718;50.922;5.346;2022-08-01T05:31:36;21.60;99.90
25914;DHT22;13718;50.922;5.346;2022-08-01T05:34:03;21.60;99.90
25914;DHT22;13718;50.922;5.346;2022-08-01T05:36:29;21.60;99.90
25914;DHT22;13718;50.922;5.346;2022-08-01T05:38:55;21.50;99.90
25914;DHT22;13718;50.922;5.346;2022-08-01T05:41:20;21.50;99.90
25914;DHT22;13718;50.922;5.346;2022-08-01T05:43:46;21.50;99.90
25914;DHT22;13718;50.922;5.346;2022-08-01T05:46:12;21.40;99.90
25914;DHT22;13718;50.922;5.346;2022-08-01T05:48:37;21.40;99.90
25914;DHT22;13718;50.922;5.346;2022-08-01T05:51:03;21.30;99.90
25914;DHT22;13718;50.922;5.346;2022-08-01T05:53:29;21.20;99.90
25914;DHT22;13718;50.922;5.346;2022-08-01T05:55:55;21.00;99.90
25914;DHT22;13718;50.922;5.346;2022-08-01T05:58:21;20.80;99.90
25914;DHT22;13718;50.922;5.346;2022-08-01T06:00:47;20.70;99.90
25914;DHT22;13718;50.922;5.346;2022-08-01T06:03:13;20.80;99.90
25914;DHT22;13718;50.922;5.346;2022-08-01T06:05:39;20.70;99.90
25914;DHT22;13718;50.922;5.346;2022-08-01T06:08:05;20.70;99.90
25914;DHT22;13718;50.922;5.346;2022-08-01T06:10:30;20.70;99.90
25914;DHT22;13718;50.922;5.346;2022-08-01T06:12:56;20.80;99.90
25914;DHT22;13718;50.922;5.346;2022-08-01T06:15:22;20.90;99.90
25914;DHT22;13718;50.922;5.346;2022-08-01T06:17:47;21.00;99.90
25914;DHT22;13718;50.922;5.346;2022-08-01T06:20:13;21.00;99.90
25914;DHT22;13718;50.922;5.346;2022-08-01T06:22:39;21.10;99.90
25914;DHT22;13718;50.922;5.346;2022-08-01T06:25:05;21.10;99.90
25914;DHT22;13718;50.922;5.346;2022-08-01T06:27:34;21.20;99.90
25914;DHT22;13718;50.922;5.346;2022-08-01T06:29:59;21.20;99.90
25914;DHT22;13718;50.922;5.346;2022-08-01T06:32:25;21.40;99.90
25914;DHT22;13718;50.922;5.346;2022-08-01T06:34:52;21.50;99.90
25914;DHT22;13718;50.922;5.346;2022-08-01T06:37:17;21.70;99.90
25914;DHT22;13718;50.922;5.346;2022-08-01T06:39:43;21.80;99.90
25914;DHT22;13718;50.922;5.346;2022-08-01T06:42:08;22.00;99.90
25914;DHT22;13718;50.922;5.346;2022-08-01T06:44:35;22.10;99.90
25914;DHT22;13718;50.922;5.346;2022-08-01T06:47:01;22.30;99.90
25914;DHT22;13718;50.922;5.346;2022-08-01T06:49:26;22.40;99.90
25914;DHT22;13718;50.922;5.346;2022-08-01T06:51:52;22.40;99.90
25914;DHT22;13718;50.922;5.346;2022-08-01T06:54:18;22.60;99.90
25914;DHT22;13718;50.922;5.346;2022-08-01T06:56:43;22.70;99.90
25914;DHT22;13718;50.922;5.346;2022-08-01T06:59:09;22.80;99.90
25914;DHT22;13718;50.922;5.346;2022-08-01T07:01:34;22.80;99.90
25914;DHT22;13718;50.922;5.346;2022-08-01T07:04:00;22.90;99.90
25914;DHT22;13718;50.922;5.346;2022-08-01T07:06:26;22.90;99.90
25914;DHT22;13718;50.922;5.346;2022-08-01T07:08:52;22.90;99.90
25914;DHT22;13718;50.922;5.346;2022-08-01T07:11:18;22.90;99.90
25914;DHT22;13718;50.922;5.346;2022-08-01T07:13:44;23.00;99.90
25914;DHT22;13718;50.922;5.346;2022-08-01T07:16:11;23.30;99.90
25914;DHT22;13718;50.922;5.346;2022-08-01T07:18:37;23.60;99.90
25914;DHT22;13718;50.922;5.346;2022-08-01T07:21:03;24.00;99.90
25914;DHT22;13718;50.922;5.346;2022-08-01T07:23:28;24.30;99.90
25914;DHT22;13718;50.922;5.346;2022-08-01T07:25:54;24.50;99.90
25914;DHT22;13718;50.922;5.346;2022-08-01T07:28:19;24.60;99.90
25914;DHT22;13718;50.922;5.346;2022-08-01T07:30:45;24.80;99.90
25914;DHT22;13718;50.922;5.346;2022-08-01T07:33:11;24.70;99.90
25914;DHT22;13718;50.922;5.346;2022-08-01T07:35:36;24.70;99.90
25914;DHT22;13718;50.922;5.346;2022-08-01T07:38:06;24.60;99.90
25914;DHT22;13718;50.922;5.346;2022-08-01T07:40:31;24.50;99.90
25914;DHT22;13718;50.922;5.346;2022-08-01T07:42:57;24.40;99.90
25914;DHT22;13718;50.922;5.346;2022-08-01T07:45:23;24.40;99.90
25914;DHT22;13718;50.922;5.346;2022-08-01T07:47:48;24.80;99.90
25914;DHT22;13718;50.922;5.346;2022-08-01T07:50:15;25.10;99.90
25914;DHT22;13718;50.922;5.346;2022-08-01T07:52:42;25.00;99.90
25914;DHT22;13718;50.922;5.346;2022-08-01T07:55:08;25.00;99.90
25914;DHT22;13718;50.922;5.346;2022-08-01T07:57:34;25.10;99.90
25914;DHT22;13718;50.922;5.346;2022-08-01T08:00:00;25.70;99.90
25914;DHT22;13718;50.922;5.346;2022-08-01T08:02:26;26.20;99.90
25914;DHT22;13718;50.922;5.346;2022-08-01T08:04:51;26.40;99.90
25914;DHT22;13718;50.922;5.346;2022-08-01T08:07:17;26.50;99.90
25914;DHT22;13718;50.922;5.346;2022-08-01T08:09:43;26.30;99.90
25914;DHT22;13718;50.922;5.346;2022-08-01T08:12:08;26.20;99.90
25914;DHT22;13718;50.922;5.346;2022-08-01T08:14:34;26.10;99.90
25914;DHT22;13718;50.922;5.346;2022-08-01T08:17:00;26.00;99.90
25914;DHT22;13718;50.922;5.346;2022-08-01T08:19:25;26.00;99.90
25914;DHT22;13718;50.922;5.346;2022-08-01T08:21:51;25.90;99.90
25914;DHT22;13718;50.922;5.346;2022-08-01T08:24:16;25.90;99.90
25914;DHT22;13718;50.922;5.346;2022-08-01T08:26:51;25.90;99.90
25914;DHT22;13718;50.922;5.346;2022-08-01T08:29:17;25.90;99.90
25914;DHT22;13718;50.922;5.346;2022-08-01T08:31:42;26.00;99.90
25914;DHT22;13718;50.922;5.346;2022-08-01T08:34:08;26.20;99.90
25914;DHT22;13718;50.922;5.346;2022-08-01T08:36:34;26.30;99.90
25914;DHT22;13718;50.922;5.346;2022-08-01T08:38:59;26.40;99.90
25914;DHT22;13718;50.922;5.346;2022-08-01T08:41:32;26.30;99.90
25914;DHT22;13718;50.922;5.346;2022-08-01T08:43:58;26.10;99.90
25914;DHT22;13718;50.922;5.346;2022-08-01T08:46:27;26.10;99.90
25914;DHT22;13718;50.922;5.346;2022-08-01T08:48:53;26.40;99.90
25914;DHT22;13718;50.922;5.346;2022-08-01T08:51:19;27.30;99.90
25914;DHT22;13718;50.922;5.346;2022-08-01T08:53:47;28.20;99.90
25914;DHT22;13718;50.922;5.346;2022-08-01T08:56:14;29.40;97.80
25914;DHT22;13718;50.922;5.346;2022-08-01T08:58:44;30.90;93.60
25914;DHT22;13718;50.922;5.346;2022-08-01T09:01:12;32.20;89.70
25914;DHT22;13718;50.922;5.346;2022-08-01T09:03:39;32.50;85.80
25914;DHT22;13718;50.922;5.346;2022-08-01T09:06:05;32.70;84.00
25914;DHT22;13718;50.922;5.346;2022-08-01T09:08:32;33.10;80.70
25914;DHT22;13718;50.922;5.346;2022-08-01T09:10:58;33.20;78.60
25914;DHT22;13718;50.922;5.346;2022-08-01T09:13:23;33.40;76.10
25914;DHT22;13718;50.922;5.346;2022-08-01T09:15:51;33.30;75.80
25914;DHT22;13718;50.922;5.346;2022-08-01T09:18:36;33.30;75.30
25914;DHT22;13718;50.922;5.346;2022-08-01T09:21:16;32.70;75.30
25914;DHT22;13718;50.922;5.346;2022-08-01T09:23:48;32.10;76.00
25914;DHT22;13718;50.922;5.346;2022-08-01T09:26:20;31.40;77.80
25914;DHT22;13718;50.922;5.346;2022-08-01T09:28:47;30.80;80.10
25914;DHT22;13718;50.922;5.346;2022-08-01T09:31:18;30.50;80.30
25914;DHT22;13718;50.922;5.346;2022-08-01T09:34:00;30.30;80.70
25914;DHT22;13718;50.922;5.346;2022-08-01T09:36:52;30.00;81.80
25914;DHT22;13718;50.922;5.346;2022-08-01T09:39:20;29.70;82.10
25914;DHT22;13718;50.922;5.346;2022-08-01T09:41:47;29.80;82.10
25914;DHT22;13718;50.922;5.346;2022-08-01T09:44:13;29.70;82.10
25914;DHT22;13718;50.922;5.346;2022-08-01T09:46:55;29.70;82.70
25914;DHT22;13718;50.922;5.346;2022-08-01T09:49:32;29.50;83.80
25914;DHT22;13718;50.922;5.346;2022-08-01T09:52:20;29.40;84.10
25914;DHT22;13718;50.922;5.346;2022-08-01T09:54:54;29.40;83.60
25914;DHT22;13718;50.922;5.346;2022-08-01T09:57:21;29.30;84.10
25914;DHT22;13718;50.922;5.346;2022-08-01T09:59:49;29.20;84.30
25914;DHT22;13718;50.922;5.346;2022-08-01T10:05:04;28.80;85.00
25914;DHT22;13718;50.922;5.346;2022-08-01T10:07:30;28.70;85.20
25914;DHT22;13718;50.922;5.346;2022-08-01T10:10:14;28.70;85.70
25914;DHT22;13718;50.922;5.346;2022-08-01T10:12:41;28.60;85.90
25914;DHT22;13718;50.922;5.346;2022-08-01T10:15:08;28.60;86.50
25914;DHT22;13718;50.922;5.346;2022-08-01T10:17:34;28.60;87.00
25914;DHT22;13718;50.922;5.346;2022-08-01T10:20:01;28.70;87.10
25914;DHT22;13718;50.922;5.346;2022-08-01T10:22:27;29.00;86.60
25914;DHT22;13718;50.922;5.346;2022-08-01T10:24:55;29.20;85.90
25914;DHT22;13718;50.922;5.346;2022-08-01T10:27:23;29.50;85.30
25914;DHT22;13718;50.922;5.346;2022-08-01T10:29:55;29.60;84.00
25914;DHT22;13718;50.922;5.346;2022-08-01T10:32:31;29.60;82.90
25914;DHT22;13718;50.922;5.346;2022-08-01T10:34:58;29.60;83.40
25914;DHT22;13718;50.922;5.346;2022-08-01T10:37:24;29.60;84.10
25914;DHT22;13718;50.922;5.346;2022-08-01T10:39:53;29.70;84.20
25914;DHT22;13718;50.922;5.346;2022-08-01T10:42:19;29.80;83.30
25914;DHT22;13718;50.922;5.346;2022-08-01T10:44:46;29.60;83.40
25914;DHT22;13718;50.922;5.346;2022-08-01T10:47:23;29.60;83.90
25914;DHT22;13718;50.922;5.346;2022-08-01T10:52:24;29.50;84.20
25914;DHT22;13718;50.922;5.346;2022-08-01T10:55:03;29.40;84.90
25914;DHT22;13718;50.922;5.346;2022-08-01T10:57:45;29.30;84.20
25914;DHT22;13718;50.922;5.346;2022-08-01T11:00:21;29.20;84.50
25914;DHT22;13718;50.922;5.346;2022-08-01T11:03:01;29.10;85.30
25914;DHT22;13718;50.922;5.346;2022-08-01T11:05:32;28.90;84.20
25914;DHT22;13718;50.922;5.346;2022-08-01T11:08:02;28.80;83.20
25914;DHT22;13718;50.922;5.346;2022-08-01T11:10:40;28.70;82.30
25914;DHT22;13718;50.922;5.346;2022-08-01T11:13:08;28.60;82.50
25914;DHT22;13718;50.922;5.346;2022-08-01T11:15:40;28.50;83.80
25914;DHT22;13718;50.922;5.346;2022-08-01T11:21:01;28.30;85.50
25914;DHT22;13718;50.922;5.346;2022-08-01T11:23:30;28.30;84.90
25914;DHT22;13718;50.922;5.346;2022-08-01T11:28:27;28.40;83.30
25914;DHT22;13718;50.922;5.346;2022-08-01T11:31:23;28.10;82.90
25914;DHT22;13718;50.922;5.346;2022-08-01T11:38:48;28.50;82.80
25914;DHT22;13718;50.922;5.346;2022-08-01T11:41:17;28.50;81.40
25914;DHT22;13718;50.922;5.346;2022-08-01T11:49:34;29.00;79.20
25914;DHT22;13718;50.922;5.346;2022-08-01T11:54:49;29.20;79.40
25914;DHT22;13718;50.922;5.346;2022-08-01T11:57:25;29.30;78.60
25914;DHT22;13718;50.922;5.346;2022-08-01T11:59:57;29.40;77.90
25914;DHT22;13718;50.922;5.346;2022-08-01T12:02:31;29.40;77.80
25914;DHT22;13718;50.922;5.346;2022-08-01T12:05:01;29.40;77.90
25914;DHT22;13718;50.922;5.346;2022-08-01T12:07:29;29.30;76.10
25914;DHT22;13718;50.922;5.346;2022-08-01T12:10:05;29.20;75.80
25914;DHT22;13718;50.922;5.346;2022-08-01T12:12:32;29.30;76.50
25914;DHT22;13718;50.922;5.346;2022-08-01T12:15:01;29.40;76.40
25914;DHT22;13718;50.922;5.346;2022-08-01T12:17:41;29.60;76.50
25914;DHT22;13718;50.922;5.346;2022-08-01T12:20:10;29.70;76.00
25914;DHT22;13718;50.922;5.346;2022-08-01T12:22:36;29.70;75.00
25914;DHT22;13718;50.922;5.346;2022-08-01T12:25:10;29.80;75.60
25914;DHT22;13718;50.922;5.346;2022-08-01T12:27:38;29.70;76.00
25914;DHT22;13718;50.922;5.346;2022-08-01T12:30:09;29.80;76.30
25914;DHT22;13718;50.922;5.346;2022-08-01T12:32:38;29.80;76.10
25914;DHT22;13718;50.922;5.346;2022-08-01T12:37:43;29.70;75.20
25914;DHT22;13718;50.922;5.346;2022-08-01T12:42:45;29.70;75.20
25914;DHT22;13718;50.922;5.346;2022-08-01T12:45:17;29.80;74.70
25914;DHT22;13718;50.922;5.346;2022-08-01T12:47:43;29.80;75.30
25914;DHT22;13718;50.922;5.346;2022-08-01T12:50:15;29.90;74.70
25914;DHT22;13718;50.922;5.346;2022-08-01T12:52:41;29.90;75.20
25914;DHT22;13718;50.922;5.346;2022-08-01T12:55:15;30.00;75.10
25914;DHT22;13718;50.922;5.346;2022-08-01T12:57:45;30.00;75.00
25914;DHT22;13718;50.922;5.346;2022-08-01T13:00:25;30.10;74.00
25914;DHT22;13718;50.922;5.346;2022-08-01T13:05:47;29.90;69.70
25914;DHT22;13718;50.922;5.346;2022-08-01T13:08:23;30.00;71.50
25914;DHT22;13718;50.922;5.346;2022-08-01T13:10:50;30.10;71.80
25914;DHT22;13718;50.922;5.346;2022-08-01T13:13:17;29.90;70.40
25914;DHT22;13718;50.922;5.346;2022-08-01T13:15:44;30.00;70.50
25914;DHT22;13718;50.922;5.346;2022-08-01T13:18:29;30.00;71.10
25914;DHT22;13718;50.922;5.346;2022-08-01T13:21:14;30.00;70.80
25914;DHT22;13718;50.922;5.346;2022-08-01T13:23:42;29.90;71.30
25914;DHT22;13718;50.922;5.346;2022-08-01T13:26:08;29.90;71.90
25914;DHT22;13718;50.922;5.346;2022-08-01T13:28:34;29.90;72.30
25914;DHT22;13718;50.922;5.346;2022-08-01T13:31:06;29.60;72.90
25914;DHT22;13718;50.922;5.346;2022-08-01T13:33:46;29.60;73.20
25914;DHT22;13718;50.922;5.346;2022-08-01T13:36:13;29.70;71.70
25914;DHT22;13718;50.922;5.346;2022-08-01T13:38:40;29.60;72.40
25914;DHT22;13718;50.922;5.346;2022-08-01T13:41:25;29.50;73.00
25914;DHT22;13718;50.922;5.346;2022-08-01T13:43:50;29.50;73.90
25914;DHT22;13718;50.922;5.346;2022-08-01T13:46:16;29.50;73.50
25914;DHT22;13718;50.922;5.346;2022-08-01T13:48:42;29.20;72.80
25914;DHT22;13718;50.922;5.346;2022-08-01T13:51:07;29.20;73.00
25914;DHT22;13718;50.922;5.346;2022-08-01T13:53:33;29.20;73.10
25914;DHT22;13718;50.922;5.346;2022-08-01T13:55:58;29.10;73.10
25914;DHT22;13718;50.922;5.346;2022-08-01T13:58:24;29.10;73.10
25914;DHT22;13718;50.922;5.346;2022-08-01T14:00:50;29.10;73.50
25914;DHT22;13718;50.922;5.346;2022-08-01T14:03:15;29.10;72.50
25914;DHT22;13718;50.922;5.346;2022-08-01T14:05:42;29.00;73.30
25914;DHT22;13718;50.922;5.346;2022-08-01T14:08:08;28.90;74.40
25914;DHT22;13718;50.922;5.346;2022-08-01T14:10:34;28.80;74.90
25914;DHT22;13718;50.922;5.346;2022-08-01T14:12:59;28.60;75.20
25914;DHT22;13718;50.922;5.346;2022-08-01T14:15:25;28.60;75.80
25914;DHT22;13718;50.922;5.346;2022-08-01T14:17:51;28.60;76.30
25914;DHT22;13718;50.922;5.346;2022-08-01T14:20:17;28.60;75.90
25914;DHT22;13718;50.922;5.346;2022-08-01T14:22:45;28.50;75.70
25914;DHT22;13718;50.922;5.346;2022-08-01T14:25:11;28.30;76.50
25914;DHT22;13718;50.922;5.346;2022-08-01T14:27:37;28.10;77.80
25914;DHT22;13718;50.922;5.346;2022-08-01T14:30:06;28.00;78.60
25914;DHT22;13718;50.922;5.346;2022-08-01T14:32:32;28.10;78.70
25914;DHT22;13718;50.922;5.346;2022-08-01T14:34:59;28.20;78.50
25914;DHT22;13718;50.922;5.346;2022-08-01T14:37:25;28.10;78.70
25914;DHT22;13718;50.922;5.346;2022-08-01T14:39:51;28.10;78.70
25914;DHT22;13718;50.922;5.346;2022-08-01T14:42:17;27.90;78.10
25914;DHT22;13718;50.922;5.346;2022-08-01T14:44:42;27.80;78.60
25914;DHT22;13718;50.922;5.346;2022-08-01T14:47:08;27.80;78.80
25914;DHT22;13718;50.922;5.346;2022-08-01T14:49:33;27.70;78.70
25914;DHT22;13718;50.922;5.346;2022-08-01T14:51:59;27.60;78.90
25914;DHT22;13718;50.922;5.346;2022-08-01T14:54:25;27.80;78.40
25914;DHT22;13718;50.922;5.346;2022-08-01T14:56:50;27.80;78.50
25914;DHT22;13718;50.922;5.346;2022-08-01T14:59:18;27.70;78.90
25914;DHT22;13718;50.922;5.346;2022-08-01T15:01:44;27.60;78.70
25914;DHT22;13718;50.922;5.346;2022-08-01T15:04:09;27.50;79.20
25914;DHT22;13718;50.922;5.346;2022-08-01T15:06:35;27.50;79.10
25914;DHT22;13718;50.922;5.346;2022-08-01T15:09:00;27.50;79.80
25914;DHT22;13718;50.922;5.346;2022-08-01T15:11:26;27.60;80.10
25914;DHT22;13718;50.922;5.346;2022-08-01T15:13:52;27.50;80.00
25914;DHT22;13718;50.922;5.346;2022-08-01T15:16:36;27.60;79.90
25914;DHT22;13718;50.922;5.346;2022-08-01T15:19:02;27.50;79.40
25914;DHT22;13718;50.922;5.346;2022-08-01T15:21:27;27.50;80.30
25914;DHT22;13718;50.922;5.346;2022-08-01T15:23:53;27.70;80.20
25914;DHT22;13718;50.922;5.346;2022-08-01T15:26:19;27.80;80.20
25914;DHT22;13718;50.922;5.346;2022-08-01T15:28:44;28.00;78.70
25914;DHT22;13718;50.922;5.346;2022-08-01T15:31:10;28.00;78.50
25914;DHT22;13718;50.922;5.346;2022-08-01T15:33:35;28.30;78.30
25914;DHT22;13718;50.922;5.346;2022-08-01T15:36:01;28.30;77.60
25914;DHT22;13718;50.922;5.346;2022-08-01T15:38:26;28.30;77.00
25914;DHT22;13718;50.922;5.346;2022-08-01T15:40:52;28.20;76.30
25914;DHT22;13718;50.922;5.346;2022-08-01T15:43:18;28.20;76.30
25914;DHT22;13718;50.922;5.346;2022-08-01T15:45:43;28.10;76.50
25914;DHT22;13718;50.922;5.346;2022-08-01T15:48:09;28.10;77.00
25914;DHT22;13718;50.922;5.346;2022-08-01T15:50:34;28.10;76.30
25914;DHT22;13718;50.922;5.346;2022-08-01T15:53:02;28.20;76.00
25914;DHT22;13718;50.922;5.346;2022-08-01T15:55:28;28.30;75.30
25914;DHT22;13718;50.922;5.346;2022-08-01T15:57:54;28.40;74.60
25914;DHT22;13718;50.922;5.346;2022-08-01T16:00:19;28.40;75.00
25914;DHT22;13718;50.922;5.346;2022-08-01T16:02:45;28.40;74.70
25914;DHT22;13718;50.922;5.346;2022-08-01T16:05:11;28.40;75.30
25914;DHT22;13718;50.922;5.346;2022-08-01T16:07:37;28.30;75.60
25914;DHT22;13718;50.922;5.346;2022-08-01T16:10:03;28.00;76.30
25914;DHT22;13718;50.922;5.346;2022-08-01T16:12:29;27.90;77.20
25914;DHT22;13718;50.922;5.346;2022-08-01T16:14:55;28.00;76.70
25914;DHT22;13718;50.922;5.346;2022-08-01T16:17:21;27.90;76.30
25914;DHT22;13718;50.922;5.346;2022-08-01T16:19:46;27.80;76.40
25914;DHT22;13718;50.922;5.346;2022-08-01T16:22:12;27.70;76.80
25914;DHT22;13718;50.922;5.346;2022-08-01T16:24:38;27.60;76.90